createdAt,value
2019-02-17T00:03:23.658Z,18.40
2019-02-17T00:08:28.080Z,18.63
2019-02-17T00:13:32.439Z,16.87
2019-02-17T00:18:36.749Z,17.20
2019-02-17T00:23:40.997Z,18.03
2019-02-17T00:28:45.334Z,16.90
2019-02-17T00:33:49.613Z,19.13
2019-02-17T00:38:54.207Z,17.77
2019-02-17T00:43:58.461Z,18.03
2019-02-17T00:49:02.668Z,16.37
2019-02-17T00:54:06.894Z,18.77
2019-02-17T00:59:11.234Z,17.03
2019-02-17T01:04:16.955Z,16.40
2019-02-17T01:09:21.184Z,18.03
2019-02-17T01:14:25.897Z,18.47
2019-02-17T01:19:30.157Z,17.53
2019-02-17T01:24:34.360Z,18.20
2019-02-17T01:29:38.566Z,17.87
2019-02-17T01:34:42.852Z,19.83
2019-02-17T01:39:54.243Z,16.97
2019-02-17T01:44:58.454Z,18.90
2019-02-17T01:50:02.684Z,18.40
2019-02-17T01:55:07.021Z,20.27
2019-02-17T02:00:12.789Z,18.97
2019-02-17T02:05:17.021Z,19.17
2019-02-17T02:10:21.269Z,17.90
2019-02-17T02:15:25.458Z,16.70
2019-02-17T02:20:31.053Z,18.23
2019-02-17T02:25:35.278Z,17.70
2019-02-17T02:30:40.311Z,17.93
2019-02-17T02:35:44.587Z,19.90
2019-02-17T02:40:48.781Z,19.40
2019-02-17T02:45:53.019Z,18.43
2019-02-17T02:50:57.235Z,19.70
2019-02-17T02:56:01.465Z,20.13
2019-02-17T03:01:06.863Z,18.50
2019-02-17T03:06:24.196Z,20.83
2019-02-17T03:11:30.467Z,21.60
2019-02-17T03:16:34.724Z,20.17
2019-02-17T03:21:38.978Z,21.00
2019-02-17T03:26:43.179Z,21.77
2019-02-17T03:31:47.478Z,20.63
2019-02-17T03:36:51.839Z,19.13
2019-02-17T03:41:56.053Z,21.07
2019-02-17T03:47:00.226Z,29.10
2019-02-17T03:52:04.432Z,22.63
2019-02-17T03:57:08.730Z,20.93
2019-02-17T04:02:12.993Z,20.07
2019-02-17T04:07:17.163Z,23.40
2019-02-17T04:12:21.546Z,23.40
2019-02-17T04:17:25.754Z,21.57
2019-02-17T04:22:30.018Z,21.13
2019-02-17T04:27:34.284Z,21.93
2019-02-17T04:32:38.565Z,22.97
2019-02-17T04:37:42.819Z,23.83
2019-02-17T04:42:47.032Z,22.30
2019-02-17T04:47:51.222Z,23.73
2019-02-17T04:52:55.594Z,24.10
2019-02-17T04:57:59.893Z,21.67
2019-02-17T05:03:04.061Z,22.93
2019-02-17T05:08:08.255Z,23.87
2019-02-17T05:13:12.441Z,24.53
2019-02-17T05:18:16.759Z,23.30
2019-02-17T05:23:20.999Z,24.07
2019-02-17T05:28:25.186Z,24.57
2019-02-17T05:33:29.373Z,26.10
2019-02-17T05:38:33.631Z,22.10
2019-02-17T05:43:37.819Z,22.63
2019-02-17T05:48:42.027Z,23.07
2019-02-17T05:53:46.329Z,21.13
2019-02-17T05:58:50.779Z,23.60
2019-02-17T06:03:54.982Z,22.77
2019-02-17T06:08:59.279Z,22.23
2019-02-17T06:14:03.475Z,25.10
2019-02-17T06:19:07.675Z,25.10
2019-02-17T06:24:11.925Z,23.40
2019-02-17T06:29:16.287Z,26.90
2019-02-17T06:34:20.506Z,24.37
2019-02-17T06:39:24.852Z,30.63
2019-02-17T06:44:29.064Z,28.23
2019-02-17T06:49:33.388Z,30.33
2019-02-17T06:54:37.582Z,23.83
2019-02-17T06:59:41.889Z,25.00
2019-02-17T07:05:14.653Z,22.40
2019-02-17T07:10:18.892Z,22.30
2019-02-17T07:15:23.101Z,23.33
2019-02-17T07:20:27.462Z,24.93
2019-02-17T07:25:31.689Z,22.37
2019-02-17T07:30:35.919Z,20.73
2019-02-17T07:35:40.137Z,20.33
2019-02-17T07:40:44.439Z,20.00
2019-02-17T07:45:48.667Z,20.20
2019-02-17T07:50:52.890Z,19.87
2019-02-17T07:55:57.096Z,14.68
2019-02-17T08:01:01.419Z,16.35
2019-02-17T08:06:05.704Z,16.23
2019-02-17T08:11:09.452Z,15.93
2019-02-17T08:16:13.762Z,15.83
2019-02-17T08:21:18.088Z,16.30
2019-02-17T08:26:22.387Z,16.05
2019-02-17T08:31:26.961Z,14.87
2019-02-17T08:36:31.188Z,15.78
2019-02-17T08:41:34.936Z,15.25
2019-02-17T08:46:39.196Z,15.88
2019-02-17T08:51:43.410Z,14.65
2019-02-17T08:56:47.662Z,15.28
2019-02-17T09:01:51.957Z,15.50
2019-02-17T09:06:56.194Z,15.72
2019-02-17T09:12:00.415Z,15.53
2019-02-17T09:17:04.640Z,15.60
2019-02-17T09:22:08.330Z,14.90
2019-02-17T09:27:12.617Z,15.05
2019-02-17T09:32:16.949Z,16.40
2019-02-17T09:37:21.288Z,14.40
2019-02-17T09:42:25.612Z,15.75
2019-02-17T09:47:29.876Z,15.58
2019-02-17T09:52:34.089Z,16.17
2019-02-17T09:57:39.302Z,18.92
2019-02-17T10:02:44.953Z,17.15
2019-02-17T10:07:51.206Z,16.80
2019-02-17T10:12:55.172Z,15.08
2019-02-17T10:17:58.795Z,16.62
2019-02-17T10:23:03.081Z,17.25
2019-02-17T10:28:07.793Z,17.35
2019-02-17T10:33:12.049Z,16.55
2019-02-17T10:38:16.268Z,18.02
2019-02-17T10:43:20.612Z,16.67
2019-02-17T10:48:24.822Z,19.20
2019-02-17T10:53:28.559Z,18.23
2019-02-17T10:58:32.863Z,18.98
2019-02-17T11:03:37.072Z,18.40
2019-02-17T11:08:41.317Z,16.27
2019-02-17T11:13:45.599Z,16.82
2019-02-17T11:18:51.920Z,18.23
2019-02-17T11:23:55.927Z,22.25
2019-02-17T11:29:00.126Z,19.80
2019-02-17T11:37:17.397Z,18.87
2019-02-17T11:42:21.592Z,20.52
2019-02-17T11:47:26.007Z,18.42
2019-02-17T11:52:31.781Z,19.57
2019-02-17T12:00:48.020Z,18.62
2019-02-17T12:05:52.343Z,16.65
2019-02-17T12:10:56.101Z,18.20
2019-02-17T12:16:00.321Z,17.57
2019-02-17T12:21:19.788Z,17.85
2019-02-17T12:26:43.099Z,20.52
2019-02-17T12:31:47.807Z,18.23
2019-02-17T12:36:52.103Z,18.05
2019-02-17T12:41:56.328Z,18.98
2019-02-17T12:47:00.603Z,16.70
2019-02-17T12:52:04.895Z,17.40
2019-02-17T12:57:09.285Z,17.55
2019-02-17T13:02:13.602Z,17.15
2019-02-17T13:07:17.922Z,17.55
2019-02-17T13:12:22.144Z,15.68
2019-02-17T13:17:26.370Z,18.57
2019-02-17T13:22:30.553Z,17.45
2019-02-17T13:27:34.292Z,19.95
2019-02-17T13:32:38.538Z,17.98
2019-02-17T13:37:42.712Z,18.12
2019-02-17T13:42:47.064Z,17.25
2019-02-17T13:47:51.404Z,17.98
2019-02-17T13:52:55.608Z,19.62
2019-02-17T13:57:59.973Z,18.77
2019-02-17T14:03:04.641Z,18.37
2019-02-17T14:08:08.993Z,16.87
2019-02-17T14:13:13.189Z,18.90
2019-02-17T14:18:17.476Z,15.63
2019-02-17T14:23:21.674Z,16.85
2019-02-17T14:28:25.960Z,15.48
2019-02-17T14:33:30.179Z,16.77
2019-02-17T14:38:34.435Z,17.05
2019-02-17T14:43:38.655Z,15.58
2019-02-17T14:48:42.877Z,15.05
2019-02-17T14:53:47.112Z,14.35
2019-02-17T14:58:51.330Z,16.07
2019-02-17T15:03:55.535Z,16.82
2019-02-17T15:08:59.866Z,16.90
2019-02-17T15:14:04.171Z,15.55
2019-02-17T15:19:08.450Z,15.93
2019-02-17T15:24:12.664Z,17.37
2019-02-17T15:29:16.886Z,16.35
2019-02-17T15:34:21.123Z,18.05
2019-02-17T15:39:25.416Z,16.17
2019-02-17T15:44:29.789Z,18.32
2019-02-17T15:49:34.165Z,14.23
2019-02-17T15:54:38.385Z,19.17
2019-02-17T15:59:42.618Z,17.95
2019-02-17T16:04:46.847Z,16.70
2019-02-17T16:09:51.080Z,19.73
2019-02-17T16:14:55.280Z,16.67
2019-02-17T16:19:59.543Z,18.37
2019-02-17T16:25:03.977Z,17.62
2019-02-17T16:30:11.046Z,27.67
2019-02-17T16:35:15.331Z,18.17
2019-02-17T16:43:45.373Z,18.98
2019-02-17T16:48:49.583Z,19.20
2019-02-17T16:53:53.835Z,20.80
2019-02-17T16:58:58.111Z,18.00
2019-02-17T17:04:02.381Z,21.48
2019-02-17T17:09:08.932Z,23.45
2019-02-17T17:14:13.130Z,20.20
2019-02-17T17:19:17.412Z,24.63
2019-02-17T17:24:21.719Z,19.12
2019-02-17T17:29:26.021Z,19.75
2019-02-17T17:34:30.262Z,21.25
2019-02-17T17:39:34.054Z,19.17
2019-02-17T17:44:38.327Z,17.50
2019-02-17T17:49:42.824Z,18.25
2019-02-17T17:54:47.156Z,18.62
2019-02-17T17:59:51.395Z,24.85
2019-02-17T18:04:55.725Z,19.77
2019-02-17T18:10:00.051Z,18.10
2019-02-17T18:15:04.455Z,20.37
2019-02-17T18:20:10.081Z,27.05
2019-02-17T18:25:14.537Z,18.15
2019-02-17T18:30:18.956Z,18.60
2019-02-17T18:35:23.373Z,17.67
2019-02-17T18:40:27.599Z,17.80
2019-02-17T18:45:31.933Z,18.25
2019-02-17T18:50:36.249Z,24.52
2019-02-17T18:55:40.552Z,20.43
2019-02-17T19:00:44.923Z,18.60
2019-02-17T19:05:49.240Z,16.67
2019-02-17T19:10:53.483Z,19.23
2019-02-17T19:15:57.754Z,22.55
2019-02-17T19:21:02.193Z,20.97
2019-02-17T19:26:07.718Z,18.85
2019-02-17T19:31:12.057Z,20.25
2019-02-17T19:36:16.457Z,18.70
2019-02-17T19:41:20.712Z,22.95
2019-02-17T19:46:24.959Z,16.50
2019-02-17T19:51:29.408Z,18.82
2019-02-17T19:56:33.767Z,16.77
2019-02-17T20:01:38.115Z,25.48
2019-02-17T20:06:42.605Z,19.32
2019-02-17T20:11:46.996Z,17.48
2019-02-17T20:16:51.330Z,18.00
2019-02-17T20:21:55.737Z,15.72
2019-02-17T20:27:00.061Z,16.80
2019-02-17T20:32:04.488Z,17.20
2019-02-17T20:37:08.803Z,13.68
2019-02-17T20:42:13.058Z,14.45
2019-02-17T20:47:17.304Z,12.75
2019-02-17T20:52:21.522Z,13.28
2019-02-17T20:57:25.766Z,13.35
2019-02-17T21:02:30.036Z,12.07
2019-02-17T21:07:34.292Z,12.45
2019-02-17T21:12:38.613Z,14.75
2019-02-17T21:17:42.810Z,16.55
2019-02-17T21:22:47.107Z,13.20
2019-02-17T21:27:52.407Z,16.30
2019-02-17T21:32:56.654Z,12.53
2019-02-17T21:38:00.955Z,14.25
2019-02-17T21:43:05.263Z,12.07
2019-02-17T21:48:09.472Z,11.85
2019-02-17T21:53:20.265Z,14.03
2019-02-17T21:58:19.914Z,13.22
2019-02-17T22:03:24.145Z,13.10
2019-02-17T22:08:28.393Z,14.63
2019-02-17T22:13:32.760Z,13.32
2019-02-17T22:18:36.997Z,12.33
2019-02-17T22:23:41.198Z,11.68
2019-02-17T22:28:45.517Z,12.43
2019-02-17T22:33:49.732Z,14.33
2019-02-17T22:38:53.932Z,13.62
2019-02-17T22:43:58.192Z,12.03
2019-02-17T22:49:02.397Z,14.18
2019-02-17T22:54:06.722Z,11.75
2019-02-17T22:59:10.943Z,10.98
2019-02-17T23:04:15.226Z,9.83
2019-02-17T23:09:19.567Z,12.35
2019-02-17T23:14:23.783Z,13.20
2019-02-17T23:19:28.067Z,12.35
2019-02-17T23:24:32.452Z,12.33
2019-02-17T23:29:36.659Z,13.25
2019-02-17T23:34:40.893Z,11.73
2019-02-17T23:39:45.083Z,11.63
2019-02-17T23:44:49.321Z,11.78
2019-02-17T23:49:53.528Z,11.80
2019-02-17T23:54:57.721Z,10.80
